»·PEaware :: N7744S KBFL-KWHP

N7744S :: KBFL-KWHP

FLIGHT INFORMATION

Flight Status: Arrived
Operator: Privately registered:
United States
More flights under this callsign
Pilot: Anonymous 45453 (45453)
Aircraft: CESSNA 172 SKYHAWK
(C172)
More flights by this aircraft type
Origin: KBFL Meadows
United States
Destination: KWHP Whiteman
United States
More flights between these airports :: More routes between these airports
Route:
File this flight plan on PilotEdge
Remarks:
Altitude:
(Current/Filed)
0ft
Speed:
(Current/Filed)
0kts
Departed: 24-Oct-23 02:27 PM
Arrived: 24-Oct-23 03:17 PM
Distance/Time
Traveled:
77nm/0:50
Distance/Time
To Go:
Arrived

Flight Plot

Page will automatically refresh every two minutes.


Map Options




Map Legend


Flown Route
Filed Route
Departure Airport
Arrival Airport
Navaid (VOR, NDB)
Fix

Horizontal Profiles

Position Reports

Time Latitude Longitude Heading Altitude Ground
Speed
24-Oct-23 14:17 35.429658 -119.046616 136 495ft 0kts
24-Oct-23 14:18 35.429658 -119.046616 136 495ft 0kts
24-Oct-23 14:19 35.429658 -119.046616 136 495ft 0kts
24-Oct-23 14:20 35.428776 -119.046025 150 492ft 13kts
24-Oct-23 14:21 35.426696 -119.044499 172 484ft 6kts
24-Oct-23 14:22 35.425294 -119.044314 266 479ft 2kts
24-Oct-23 14:23 35.425394 -119.044535 316 479ft 2kts
24-Oct-23 14:24 35.425783 -119.045011 275 479ft 1kts
24-Oct-23 14:25 35.425399 -119.045771 267 476ft 13kts
24-Oct-23 14:26 35.439242 -119.061071 325 920ft 84kts
24-Oct-23 14:27 35.444719 -119.083328 215 1575ft 95kts
24-Oct-23 14:28 35.421978 -119.081880 138 2239ft 92kts
24-Oct-23 14:29 35.406771 -119.059671 124 3015ft 84kts
24-Oct-23 14:30 35.384745 -119.048303 143 3650ft 85kts
24-Oct-23 14:31 35.362715 -119.033832 152 4160ft 98kts
24-Oct-23 14:32 35.337300 -119.021146 155 4690ft 96kts
24-Oct-23 14:33 35.310933 -119.011881 167 5164ft 99kts
24-Oct-23 14:34 35.284339 -119.004836 161 5692ft 95kts
24-Oct-23 14:35 35.258637 -118.995622 173 6261ft 97kts
24-Oct-23 14:36 35.232233 -118.991545 151 6831ft 98kts
24-Oct-23 14:37 35.209535 -118.973822 133 7380ft 99kts
24-Oct-23 14:38 35.196192 -118.945026 107 7685ft 96kts
24-Oct-23 14:39 35.172190 -118.928778 155 7744ft 101kts
24-Oct-23 14:40 35.145090 -118.913487 141 7684ft 108kts
24-Oct-23 14:41 35.121936 -118.890870 148 7700ft 107kts
24-Oct-23 14:42 35.092888 -118.883186 168 7679ft 106kts
24-Oct-23 14:43 35.063433 -118.878332 167 7654ft 106kts
24-Oct-23 14:44 35.034021 -118.874223 182 7609ft 108kts
24-Oct-23 14:45 35.005819 -118.878494 179 7596ft 106kts
24-Oct-23 14:46 34.974922 -118.876092 170 7575ft 106kts
24-Oct-23 14:47 34.946835 -118.884771 199 7519ft 107kts
24-Oct-23 14:48 34.918607 -118.885484 164 7614ft 100kts
24-Oct-23 14:49 34.890019 -118.877134 158 7549ft 106kts
24-Oct-23 14:50 34.862007 -118.866313 156 7545ft 105kts
24-Oct-23 14:51 34.832902 -118.860780 167 7517ft 105kts
24-Oct-23 14:52 34.805212 -118.848391 149 7496ft 106kts
24-Oct-23 14:53 34.781410 -118.827151 141 7478ft 106kts
24-Oct-23 14:54 34.756442 -118.812537 159 7617ft 96kts
24-Oct-23 14:55 34.730640 -118.796139 144 7520ft 105kts
24-Oct-23 14:56 34.709576 -118.770956 136 7495ft 106kts
24-Oct-23 14:57 34.687859 -118.749448 140 7610ft 99kts
24-Oct-23 14:58 34.663602 -118.731907 145 7632ft 102kts
24-Oct-23 14:59 34.639392 -118.712264 144 7617ft 104kts
24-Oct-23 15:00 34.613126 -118.696779 161 7618ft 105kts
24-Oct-23 15:01 34.586057 -118.683732 147 7562ft 105kts
24-Oct-23 15:02 34.563110 -118.661455 137 7294ft 105kts
24-Oct-23 15:03 34.538808 -118.642267 157 7031ft 104kts
24-Oct-23 15:04 34.511906 -118.628527 150 6776ft 104kts
24-Oct-23 15:05 34.487015 -118.610390 144 6528ft 104kts
24-Oct-23 15:06 34.464655 -118.588215 135 6201ft 103kts
24-Oct-23 15:07 34.443342 -118.564844 141 5650ft 102kts
24-Oct-23 15:08 34.420334 -118.544469 147 5099ft 102kts
24-Oct-23 15:09 34.394323 -118.530697 155 4551ft 101kts
24-Oct-23 15:10 34.369167 -118.515614 156 4019ft 100kts
24-Oct-23 15:11 34.343641 -118.501956 147 3487ft 100kts
24-Oct-23 15:12 34.322401 -118.480468 137 2968ft 99kts
24-Oct-23 15:13 34.302987 -118.456783 139 2377ft 95kts
24-Oct-23 15:14 34.285098 -118.440489 139 1705ft 71kts
24-Oct-23 15:15 34.269317 -118.424008 139 1330ft 75kts
24-Oct-23 15:16 34.259413 -118.413226 86 992ft 11kts

Navigation Log

Ident Type
Flight plan parsing failed, navigation log unavailable